createdAt,value
2018-06-15T00:00:07.556Z,100674.16
2018-06-15T00:02:36.175Z,100674.12
2018-06-15T00:05:04.543Z,100677.94
2018-06-15T00:07:32.624Z,100679.12
2018-06-15T00:10:01.308Z,100680.20
2018-06-15T00:12:29.360Z,100676.40
2018-06-15T00:15:04.012Z,100675.88
2018-06-15T00:17:32.067Z,100676.16
2018-06-15T00:20:00.128Z,100680.89
2018-06-15T00:22:28.203Z,100677.71
2018-06-15T00:24:56.245Z,100674.69
2018-06-15T00:27:30.946Z,100676.04
2018-06-15T00:29:58.999Z,100674.09
2018-06-15T00:32:27.132Z,100674.02
2018-06-15T00:34:55.179Z,100676.20
2018-06-15T00:37:23.229Z,100671.23
2018-06-15T00:39:51.304Z,100665.23
2018-06-15T00:42:19.376Z,100667.11
2018-06-15T00:44:47.423Z,100671.08
2018-06-15T00:47:15.480Z,100660.87
2018-06-15T00:49:43.543Z,100654.70
2018-06-15T00:52:11.608Z,100656.13
2018-06-15T00:54:39.678Z,100653.11
2018-06-15T00:57:19.124Z,100646.44
2018-06-15T00:59:47.241Z,100648.30
2018-06-15T01:02:15.335Z,100639.49
2018-06-15T01:04:43.482Z,100645.50
2018-06-15T01:07:11.474Z,100639.66
2018-06-15T01:09:39.574Z,100641.45
2018-06-15T01:12:07.635Z,100639.73
2018-06-15T01:14:35.690Z,100643.23
2018-06-15T01:17:03.763Z,100641.45
2018-06-15T01:19:31.812Z,100643.94
2018-06-15T01:21:59.852Z,100643.30
2018-06-15T01:24:27.924Z,100642.66
2018-06-15T01:26:55.952Z,100647.28
2018-06-15T01:29:24.015Z,100639.85
2018-06-15T01:31:52.082Z,100640.90
2018-06-15T01:34:20.151Z,100644.33
2018-06-15T01:36:48.290Z,100642.84
2018-06-15T01:39:16.346Z,100638.75
2018-06-15T01:41:44.384Z,100649.47
2018-06-15T01:44:12.472Z,100648.39
2018-06-15T01:46:40.505Z,100642.84
2018-06-15T01:49:08.551Z,100644.91
2018-06-15T01:51:36.659Z,100639.08
2018-06-15T01:54:04.724Z,100642.31
2018-06-15T01:56:32.863Z,100637.45
2018-06-15T01:59:00.920Z,100637.45
2018-06-15T02:01:29.022Z,100634.55
2018-06-15T02:03:57.023Z,100635.55
2018-06-15T02:06:25.091Z,100635.19
2018-06-15T02:08:53.153Z,100630.83
2018-06-15T02:11:21.207Z,100636.14
2018-06-15T02:13:49.287Z,100633.26
2018-06-15T02:16:17.459Z,100635.69
2018-06-15T02:18:45.659Z,100635.72
2018-06-15T02:21:13.727Z,100637.28
2018-06-15T02:23:41.812Z,100633.70
2018-06-15T02:26:09.879Z,100634.92
2018-06-15T02:28:37.977Z,100635.44
2018-06-15T02:31:06.096Z,100635.84
2018-06-15T02:33:34.187Z,100630.32
2018-06-15T02:36:02.275Z,100631.74
2018-06-15T02:38:30.439Z,100638.11
2018-06-15T02:40:58.525Z,100641.77
2018-06-15T02:43:26.597Z,100645.02
2018-06-15T02:45:54.835Z,100641.84
2018-06-15T02:48:22.916Z,100640.21
2018-06-15T02:50:50.988Z,100646.69
2018-06-15T02:53:19.095Z,100647.13
2018-06-15T02:55:47.264Z,100645.33
2018-06-15T02:58:15.355Z,100645.56
2018-06-15T03:00:43.451Z,100643.15
2018-06-15T03:03:11.566Z,100645.85
2018-06-15T03:05:39.701Z,100642.00
2018-06-15T03:08:07.770Z,100649.23
2018-06-15T03:10:35.857Z,100646.44
2018-06-15T03:13:03.928Z,100653.72
2018-06-15T03:15:32.036Z,100656.86
2018-06-15T03:18:00.144Z,100658.28
2018-06-15T03:20:28.339Z,100645.67
2018-06-15T03:22:56.422Z,100641.78
2018-06-15T03:25:24.503Z,100637.53
2018-06-15T03:27:52.583Z,100643.80
2018-06-15T03:30:20.650Z,100644.88
2018-06-15T03:32:48.715Z,100643.44
2018-06-15T03:35:16.836Z,100644.47
2018-06-15T03:37:44.952Z,100642.84
2018-06-15T03:40:13.042Z,100646.20
2018-06-15T03:42:41.143Z,100654.30
2018-06-15T03:45:09.214Z,100654.47
2018-06-15T03:47:37.278Z,100650.78
2018-06-15T03:50:05.392Z,100653.05
2018-06-15T03:52:33.467Z,100656.19
2018-06-15T03:55:01.711Z,100657.77
2018-06-15T03:57:29.781Z,100651.83
2018-06-15T03:59:57.891Z,100661.06
2018-06-15T04:02:25.998Z,100662.94
2018-06-15T04:04:54.095Z,100667.58
2018-06-15T04:07:22.184Z,100666.59
2018-06-15T04:09:50.382Z,100675.02
2018-06-15T04:12:18.464Z,100676.53
2018-06-15T04:14:46.549Z,100676.75
2018-06-15T04:17:14.632Z,100667.58
2018-06-15T04:19:42.795Z,100672.14
2018-06-15T04:22:10.931Z,100672.62
2018-06-15T04:24:39.020Z,100678.66
2018-06-15T04:27:07.099Z,100671.50
2018-06-15T04:29:35.191Z,100675.20
2018-06-15T04:32:03.439Z,100678.06
2018-06-15T04:34:31.539Z,100675.73
2018-06-15T04:36:59.620Z,100678.42
2018-06-15T04:39:27.718Z,100674.45
2018-06-15T04:41:55.795Z,100680.84
2018-06-15T04:44:23.921Z,100672.86
2018-06-15T04:46:52.030Z,100677.10
2018-06-15T04:49:20.108Z,100677.45
2018-06-15T04:51:48.220Z,100677.50
2018-06-15T04:54:16.299Z,100677.50
2018-06-15T04:56:44.415Z,100685.61
2018-06-15T04:59:12.517Z,100679.73
2018-06-15T05:01:40.591Z,100684.80
2018-06-15T05:04:08.668Z,100681.41
2018-06-15T05:06:36.765Z,100683.94
2018-06-15T05:09:07.508Z,100683.47
2018-06-15T05:11:35.589Z,100678.55
2018-06-15T05:14:03.738Z,100675.86
2018-06-15T05:16:31.913Z,100678.35
2018-06-15T05:18:59.977Z,100676.53
2018-06-15T05:21:28.103Z,100684.05
2018-06-15T05:23:56.187Z,100685.04
2018-06-15T05:26:24.337Z,100691.66
2018-06-15T05:28:52.432Z,100691.92
2018-06-15T05:31:20.518Z,100699.52
2018-06-15T05:33:48.659Z,100696.11
2018-06-15T05:36:16.772Z,100697.98
2018-06-15T05:38:44.861Z,100693.53
2018-06-15T05:41:19.596Z,100696.38
2018-06-15T05:43:47.740Z,100696.12
2018-06-15T05:46:15.847Z,100695.87
2018-06-15T05:48:50.359Z,100695.48
2018-06-15T05:51:18.475Z,100696.83
2018-06-15T05:53:46.607Z,100691.84
2018-06-15T05:56:14.688Z,100697.53
2018-06-15T05:58:42.786Z,100701.00
2018-06-15T06:01:11.137Z,100700.89
2018-06-15T06:03:39.215Z,100700.48
2018-06-15T06:06:07.312Z,100698.81
2018-06-15T06:08:35.395Z,100702.00
2018-06-15T06:11:03.517Z,100707.82
2018-06-15T06:13:31.604Z,100706.81
2018-06-15T06:15:59.684Z,100708.50
2018-06-15T06:18:27.799Z,100709.79
2018-06-15T06:20:55.902Z,100712.56
2018-06-15T06:23:24.068Z,100720.02
2018-06-15T06:25:52.164Z,100715.18
2018-06-15T06:28:20.236Z,100720.62
2018-06-15T06:30:48.380Z,100720.06
2018-06-15T06:33:16.452Z,100721.98
2018-06-15T06:35:44.557Z,100729.05
2018-06-15T06:38:12.820Z,100722.61
2018-06-15T06:40:40.927Z,100724.47
2018-06-15T06:43:08.999Z,100724.97
2018-06-15T06:45:37.106Z,100721.05
2018-06-15T06:48:05.247Z,100727.73
2018-06-15T06:50:33.404Z,100730.98
2018-06-15T06:53:01.516Z,100734.02
2018-06-15T06:55:29.636Z,100737.33
2018-06-15T06:57:57.727Z,100735.75
2018-06-15T07:00:25.874Z,100735.95
2018-06-15T07:02:53.965Z,100735.83
2018-06-15T07:05:22.078Z,100735.22
2018-06-15T07:07:50.213Z,100734.09
2018-06-15T07:10:18.286Z,100738.16
2018-06-15T07:12:46.426Z,100736.91
2018-06-15T07:15:14.505Z,100741.84
2018-06-15T07:17:42.600Z,100736.70
2018-06-15T07:20:10.676Z,100742.55
2018-06-15T07:22:38.796Z,100743.14
2018-06-15T07:25:06.881Z,100740.18
2018-06-15T07:27:34.983Z,100751.12
2018-06-15T07:30:03.172Z,100753.44
2018-06-15T07:32:31.274Z,100744.14
2018-06-15T07:34:59.388Z,100744.49
2018-06-15T07:37:27.550Z,100745.13
2018-06-15T07:39:55.611Z,100745.38
2018-06-15T07:42:23.687Z,100745.90
2018-06-15T07:44:51.759Z,100749.59
2018-06-15T07:47:19.831Z,100743.56
2018-06-15T07:49:47.936Z,100747.73
2018-06-15T07:52:16.091Z,100750.05
2018-06-15T07:54:44.166Z,100747.43
2018-06-15T07:57:12.259Z,100743.34
2018-06-15T07:59:40.415Z,100741.00
2018-06-15T08:02:08.484Z,100746.20
2018-06-15T08:04:36.589Z,100747.11
2018-06-15T08:07:04.674Z,100750.53
2018-06-15T08:09:32.776Z,100752.09
2018-06-15T08:12:00.867Z,100749.34
2018-06-15T08:14:28.951Z,100750.39
2018-06-15T08:16:57.161Z,100745.75
2018-06-15T08:19:25.261Z,100746.58
2018-06-15T08:21:53.334Z,100750.42
2018-06-15T08:24:21.528Z,100751.36
2018-06-15T08:26:49.635Z,100747.92
2018-06-15T08:29:17.710Z,100751.81
2018-06-15T08:31:45.778Z,100751.23
2018-06-15T08:34:13.864Z,100750.05
2018-06-15T08:36:41.943Z,100746.09
2018-06-15T08:39:11.518Z,100740.53
2018-06-15T08:41:39.600Z,100743.82
2018-06-15T08:44:07.680Z,100744.26
2018-06-15T08:46:35.830Z,100744.65
2018-06-15T08:49:03.911Z,100742.12
2018-06-15T08:51:31.996Z,100740.58
2018-06-15T08:54:00.073Z,100729.80
2018-06-15T08:56:28.198Z,100731.09
2018-06-15T08:58:56.292Z,100727.83
2018-06-15T09:01:24.369Z,100727.58
2018-06-15T09:03:52.447Z,100733.48
2018-06-15T09:06:20.560Z,100725.81
2018-06-15T09:08:48.647Z,100724.13
2018-06-15T09:11:16.707Z,100726.52
2018-06-15T09:13:44.808Z,100728.75
2018-06-15T09:16:12.975Z,100725.33
2018-06-15T09:18:41.255Z,100721.81
2018-06-15T09:21:09.371Z,100715.66
2018-06-15T09:23:37.449Z,100704.96
2018-06-15T09:26:05.600Z,100720.54
2018-06-15T09:28:33.719Z,100716.42
2018-06-15T09:31:01.795Z,100713.86
2018-06-15T09:33:30.032Z,100705.11
2018-06-15T09:35:58.115Z,100709.99
2018-06-15T09:38:26.208Z,100717.92
2018-06-15T09:40:54.294Z,100722.64
2018-06-15T09:43:22.375Z,100725.05
2018-06-15T09:45:50.596Z,100725.01
2018-06-15T09:48:18.723Z,100715.94
2018-06-15T09:50:46.917Z,100711.58
2018-06-15T09:53:14.995Z,100715.27
2018-06-15T09:55:43.083Z,100717.56
2018-06-15T09:58:11.162Z,100718.21
2018-06-15T10:03:31.831Z,100720.22
2018-06-15T10:05:59.903Z,100716.78
2018-06-15T10:08:28.035Z,100716.27
2018-06-15T10:10:56.121Z,100719.02
2018-06-15T10:13:24.238Z,100711.06
2018-06-15T10:15:52.378Z,100714.87
2018-06-15T10:18:20.539Z,100716.52
2018-06-15T10:20:48.603Z,100719.25
2018-06-15T10:23:16.845Z,100710.98
2018-06-15T10:25:44.977Z,100722.81
2018-06-15T10:28:13.144Z,100723.39
2018-06-15T10:30:41.300Z,100717.09
2018-06-15T10:33:09.769Z,100718.22
2018-06-15T10:35:38.002Z,100706.97
2018-06-15T10:38:06.180Z,100717.08
2018-06-15T10:40:34.242Z,100712.44
2018-06-15T10:43:02.331Z,100711.66
2018-06-15T10:45:30.428Z,100717.91
2018-06-15T10:47:58.552Z,100724.28
2018-06-15T10:50:26.701Z,100725.03
2018-06-15T10:52:55.177Z,100724.56
2018-06-15T10:55:23.362Z,100720.11
2018-06-15T10:57:51.520Z,100721.19
2018-06-15T11:00:19.603Z,100718.41
2018-06-15T11:02:47.719Z,100715.46
2018-06-15T11:05:15.864Z,100709.67
2018-06-15T11:07:43.940Z,100710.58
2018-06-15T11:10:12.059Z,100710.77
2018-06-15T11:12:40.174Z,100709.45
2018-06-15T11:15:08.236Z,100699.63
2018-06-15T11:17:36.322Z,100704.14
2018-06-15T11:20:05.234Z,100703.72
2018-06-15T11:22:33.336Z,100700.33
2018-06-15T11:25:01.506Z,100703.63
2018-06-15T11:27:29.598Z,100706.61
2018-06-15T11:29:57.671Z,100703.56
2018-06-15T11:32:25.754Z,100708.62
2018-06-15T11:34:53.937Z,100704.08
2018-06-15T11:37:22.134Z,100712.28
2018-06-15T11:39:50.225Z,100709.45
2018-06-15T11:42:18.299Z,100703.33
2018-06-15T11:44:46.381Z,100704.79
2018-06-15T11:47:14.471Z,100697.16
2018-06-15T11:49:42.561Z,100696.90
2018-06-15T11:52:10.703Z,100691.17
2018-06-15T11:54:38.778Z,100697.95
2018-06-15T11:57:06.904Z,100694.97
2018-06-15T11:59:34.999Z,100690.34
2018-06-15T12:02:03.088Z,100696.60
2018-06-15T12:04:31.207Z,100691.17
2018-06-15T12:06:59.287Z,100690.34
2018-06-15T12:09:27.396Z,100691.95
2018-06-15T12:11:55.484Z,100691.98
2018-06-15T12:14:23.566Z,100686.16
2018-06-15T12:16:51.631Z,100691.30
2018-06-15T12:19:19.711Z,100694.14
2018-06-15T12:21:47.802Z,100687.30
2018-06-15T12:24:15.900Z,100685.44
2018-06-15T12:26:44.004Z,100684.33
2018-06-15T12:29:12.144Z,100691.66
2018-06-15T12:31:40.231Z,100686.80
2018-06-15T12:34:08.363Z,100690.27
2018-06-15T12:36:36.423Z,100684.12
2018-06-15T12:39:07.224Z,100683.81
2018-06-15T12:41:35.303Z,100681.80
2018-06-15T12:44:03.416Z,100676.42
2018-06-15T12:46:31.495Z,100681.86
2018-06-15T12:48:59.600Z,100679.16
2018-06-15T12:51:27.700Z,100683.25
2018-06-15T12:53:55.786Z,100684.55
2018-06-15T12:56:23.860Z,100682.38
2018-06-15T12:58:52.004Z,100674.34
2018-06-15T13:01:20.095Z,100685.23
2018-06-15T13:03:48.180Z,100679.10
2018-06-15T13:06:16.255Z,100680.48
2018-06-15T13:08:44.346Z,100678.75
2018-06-15T13:11:12.452Z,100682.41
2018-06-15T13:13:40.596Z,100677.92
2018-06-15T13:16:08.711Z,100678.25
2018-06-15T13:18:36.811Z,100678.94
2018-06-15T13:21:04.907Z,100673.99
2018-06-15T13:23:34.967Z,100675.67
2018-06-15T13:26:03.069Z,100678.69
2018-06-15T13:28:31.268Z,100672.56
2018-06-15T13:30:59.365Z,100673.28
2018-06-15T13:33:27.439Z,100665.62
2018-06-15T13:35:56.358Z,100672.15
2018-06-15T13:38:24.458Z,100662.19
2018-06-15T13:40:52.531Z,100663.94
2018-06-15T13:43:20.652Z,100662.25
2018-06-15T13:45:48.746Z,100652.38
2018-06-15T13:48:16.872Z,100657.91
2018-06-15T13:50:45.057Z,100654.41
2018-06-15T13:53:13.173Z,100655.41
2018-06-15T13:55:41.296Z,100657.86
2018-06-15T13:58:09.382Z,100656.98
2018-06-15T14:00:37.478Z,100659.76
2018-06-15T14:03:05.554Z,100668.23
2018-06-15T14:05:33.654Z,100660.36
2018-06-15T14:08:01.743Z,100660.36
2018-06-15T14:10:29.833Z,100665.14
2018-06-15T14:12:57.957Z,100661.16
2018-06-15T14:15:26.080Z,100662.59
2018-06-15T14:17:54.203Z,100662.41
2018-06-15T14:20:22.328Z,100653.13
2018-06-15T14:22:50.420Z,100653.47
2018-06-15T14:25:18.507Z,100652.64
2018-06-15T14:27:50.549Z,100652.30
2018-06-15T14:30:18.663Z,100650.72
2018-06-15T14:32:46.792Z,100649.39
2018-06-15T14:35:14.867Z,100649.66
2018-06-15T14:37:42.976Z,100649.03
2018-06-15T14:40:11.131Z,100646.34
2018-06-15T14:42:39.197Z,100650.75
2018-06-15T14:45:07.428Z,100640.09
2018-06-15T14:47:35.496Z,100641.97
2018-06-15T14:50:03.625Z,100643.56
2018-06-15T14:52:31.824Z,100640.58
2018-06-15T14:54:59.906Z,100642.52
2018-06-15T14:57:28.011Z,100637.87
2018-06-15T14:59:56.189Z,100634.31
2018-06-15T15:02:24.324Z,100631.61
2018-06-15T15:04:52.691Z,100635.67
2018-06-15T15:07:20.720Z,100637.19
2018-06-15T15:09:48.864Z,100631.41
2018-06-15T15:12:16.936Z,100631.27
2018-06-15T15:14:45.169Z,100628.59
2018-06-15T15:17:13.256Z,100623.13
2018-06-15T15:19:41.363Z,100629.41
2018-06-15T15:22:09.519Z,100626.69
2018-06-15T15:24:37.629Z,100624.23
2018-06-15T15:27:05.705Z,100623.94
2018-06-15T15:29:33.776Z,100623.97
2018-06-15T15:32:01.890Z,100627.25
2018-06-15T15:34:29.997Z,100629.92
2018-06-15T15:36:58.104Z,100623.13
2018-06-15T15:39:26.193Z,100623.88
2018-06-15T15:41:54.358Z,100623.59
2018-06-15T15:44:22.453Z,100617.27
2018-06-15T15:46:50.529Z,100622.55
2018-06-15T15:49:18.682Z,100626.14
2018-06-15T15:51:46.780Z,100623.69
2018-06-15T15:54:14.887Z,100624.42
2018-06-15T15:56:43.041Z,100621.98
2018-06-15T15:59:11.178Z,100618.77
2018-06-15T16:01:39.278Z,100614.15
2018-06-15T16:04:07.366Z,100620.97
2018-06-15T16:06:35.450Z,100624.50
2018-06-15T16:09:04.527Z,100631.89
2018-06-15T16:11:32.631Z,100629.44
2018-06-15T16:14:00.701Z,100629.97
2018-06-15T16:16:28.794Z,100629.43
2018-06-15T16:18:56.990Z,100625.55
2018-06-15T16:21:25.076Z,100629.44
2018-06-15T16:23:53.160Z,100617.69
2018-06-15T16:26:21.261Z,100617.91
2018-06-15T16:28:49.351Z,100619.80
2018-06-15T16:31:17.424Z,100617.89
2018-06-15T16:33:45.506Z,100622.23
2018-06-15T16:36:14.617Z,100626.62
2018-06-15T16:38:43.644Z,100632.12
2018-06-15T16:41:12.039Z,100625.55
2018-06-15T16:43:40.375Z,100630.17
2018-06-15T16:46:08.719Z,100629.91
2018-06-15T16:48:37.658Z,100630.20
2018-06-15T16:51:05.799Z,100627.76
2018-06-15T16:53:34.385Z,100631.57
2018-06-15T16:56:03.816Z,100635.94
2018-06-15T16:58:32.270Z,100622.29
2018-06-15T17:01:00.443Z,100626.34
2018-06-15T17:03:38.078Z,100625.78
2018-06-15T17:06:06.434Z,100629.08
2018-06-15T17:08:34.673Z,100623.63
2018-06-15T17:11:02.911Z,100621.52
2018-06-15T17:13:31.259Z,100622.35
2018-06-15T17:15:59.487Z,100623.16
2018-06-15T17:18:28.067Z,100626.98
2018-06-15T17:20:56.293Z,100621.20
2018-06-15T17:23:24.461Z,100622.61
2018-06-15T17:25:52.795Z,100624.00
2018-06-15T17:28:21.161Z,100620.44
2018-06-15T17:30:52.298Z,100621.27
2018-06-15T17:33:20.469Z,100623.38
2018-06-15T17:35:48.912Z,100615.51
2018-06-15T17:38:17.240Z,100626.70
2018-06-15T17:40:45.760Z,100623.72
2018-06-15T17:43:14.191Z,100622.34
2018-06-15T17:45:42.374Z,100621.25
2018-06-15T17:48:10.621Z,100623.98
2018-06-15T17:50:39.811Z,100625.62
2018-06-15T17:53:07.952Z,100621.52
2018-06-15T17:55:36.415Z,100626.97
2018-06-15T17:58:04.702Z,100625.91
2018-06-15T18:00:32.846Z,100625.91
2018-06-15T18:03:01.101Z,100625.62
2018-06-15T18:05:29.213Z,100623.17
2018-06-15T18:07:58.559Z,100624.52
2018-06-15T18:10:26.723Z,100623.98
2018-06-15T18:12:54.849Z,100626.97
2018-06-15T18:15:22.970Z,100623.72
2018-06-15T18:17:51.153Z,100623.09
2018-06-15T18:20:19.287Z,100623.92
2018-06-15T18:22:47.407Z,100627.52
2018-06-15T18:25:15.554Z,100627.47
2018-06-15T18:27:43.681Z,100626.06
2018-06-15T18:30:11.811Z,100619.20
2018-06-15T18:32:50.537Z,100617.88
2018-06-15T18:35:18.676Z,100618.14
2018-06-15T18:37:46.903Z,100623.27
2018-06-15T18:40:15.282Z,100624.91
2018-06-15T18:42:44.551Z,100621.61
2018-06-15T18:45:12.738Z,100624.92
2018-06-15T18:47:40.863Z,100625.76
2018-06-15T18:50:09.104Z,100625.16
2018-06-15T18:52:38.740Z,100628.44
2018-06-15T18:55:06.946Z,100625.41
2018-06-15T18:57:42.878Z,100626.23
2018-06-15T19:00:11.922Z,100626.23
2018-06-15T19:02:40.146Z,100626.22
2018-06-15T19:05:08.366Z,100616.09
2018-06-15T19:07:37.174Z,100631.27
2018-06-15T19:10:05.291Z,100623.14
2018-06-15T19:12:33.580Z,100622.62
2018-06-15T19:15:01.766Z,100624.03
2018-06-15T19:17:29.941Z,100625.66
2018-06-15T19:19:58.190Z,100625.64
2018-06-15T19:22:26.388Z,100620.95
2018-06-15T19:24:54.539Z,100620.78
2018-06-15T19:27:22.763Z,100615.19
2018-06-15T19:29:51.020Z,100622.77
2018-06-15T19:32:19.153Z,100623.86
2018-06-15T19:34:47.423Z,100625.22
2018-06-15T19:37:15.517Z,100624.74
2018-06-15T19:39:43.706Z,100619.53
2018-06-15T19:42:11.907Z,100627.44
2018-06-15T19:44:40.023Z,100637.23
2018-06-15T19:47:08.139Z,100633.39
2018-06-15T19:49:36.245Z,100632.67
2018-06-15T19:52:04.671Z,100634.05
2018-06-15T19:54:34.060Z,100632.81
2018-06-15T19:57:02.213Z,100637.31
2018-06-15T19:59:30.364Z,100640.25
2018-06-15T20:01:59.087Z,100640.65
2018-06-15T20:04:35.129Z,100637.37
2018-06-15T20:07:03.293Z,100637.86
2018-06-15T20:09:31.399Z,100636.14
2018-06-15T20:11:59.752Z,100636.37
2018-06-15T20:14:27.879Z,100636.89
2018-06-15T20:16:56.052Z,100639.51
2018-06-15T20:19:24.179Z,100637.09
2018-06-15T20:21:52.336Z,100636.56
2018-06-15T20:24:20.448Z,100636.33
2018-06-15T20:26:48.748Z,100643.55
2018-06-15T20:29:16.917Z,100649.07
2018-06-15T20:31:45.037Z,100644.37
2018-06-15T20:34:13.174Z,100648.75
2018-06-15T20:36:41.292Z,100645.93
2018-06-15T20:39:10.155Z,100646.08
2018-06-15T20:41:38.618Z,100647.58
2018-06-15T20:44:07.032Z,100647.62
2018-06-15T20:46:35.520Z,100643.66
2018-06-15T20:49:03.915Z,100649.92
2018-06-15T20:51:32.130Z,100645.27
2018-06-15T20:54:00.289Z,100647.77
2018-06-15T20:56:28.680Z,100643.02
2018-06-15T20:58:56.875Z,100642.34
2018-06-15T21:01:25.148Z,100631.08
2018-06-15T21:03:53.332Z,100629.61
2018-06-15T21:06:21.497Z,100634.92
2018-06-15T21:08:49.726Z,100637.52
2018-06-15T21:11:17.867Z,100633.24
2018-06-15T21:13:46.037Z,100636.47
2018-06-15T21:16:14.260Z,100638.15
2018-06-15T21:18:46.899Z,100637.80
2018-06-15T21:21:15.076Z,100637.89
2018-06-15T21:23:43.199Z,100637.77
2018-06-15T21:26:11.346Z,100624.50
2018-06-15T21:28:39.501Z,100629.46
2018-06-15T21:31:07.695Z,100632.63
2018-06-15T21:33:37.272Z,100632.56
2018-06-15T21:36:05.446Z,100636.57
2018-06-15T21:38:33.632Z,100634.30
2018-06-15T21:41:01.770Z,100634.00
2018-06-15T21:43:29.914Z,100632.95
2018-06-15T21:45:58.293Z,100630.42
2018-06-15T21:48:28.282Z,100630.48
2018-06-15T21:50:56.467Z,100633.72
2018-06-15T21:53:24.589Z,100627.44
2018-06-15T21:55:52.725Z,100631.25
2018-06-15T21:58:20.901Z,100633.81
2018-06-15T22:00:48.993Z,100639.09
2018-06-15T22:03:17.122Z,100633.29
2018-06-15T22:05:45.247Z,100637.75
2018-06-15T22:08:13.469Z,100636.74
2018-06-15T22:10:41.725Z,100634.94
2018-06-15T22:13:09.918Z,100626.30
2018-06-15T22:15:38.075Z,100632.77
2018-06-15T22:18:08.801Z,100629.39
2018-06-15T22:20:37.079Z,100631.40
2018-06-15T22:23:05.247Z,100634.10
2018-06-15T22:25:33.488Z,100632.09
2018-06-15T22:28:01.798Z,100632.25
2018-06-15T22:30:29.910Z,100637.16
2018-06-15T22:32:58.271Z,100636.54
2018-06-15T22:35:26.398Z,100634.09
2018-06-15T22:37:54.735Z,100627.73
2018-06-15T22:40:23.255Z,100628.45
2018-06-15T22:42:51.439Z,100629.64
2018-06-15T22:45:20.121Z,100633.19
2018-06-15T22:47:48.426Z,100632.67
2018-06-15T22:50:16.487Z,100637.84
2018-06-15T22:52:44.574Z,100640.17
2018-06-15T22:55:12.735Z,100637.98
2018-06-15T22:57:40.848Z,100639.67
2018-06-15T23:00:08.951Z,100638.46
2018-06-15T23:02:37.197Z,100642.76
2018-06-15T23:05:05.344Z,100644.94
2018-06-15T23:07:33.467Z,100644.58
2018-06-15T23:10:01.653Z,100645.48
2018-06-15T23:12:29.723Z,100642.31
2018-06-15T23:16:14.315Z,100637.28
2018-06-15T23:18:43.211Z,100644.73
2018-06-15T23:21:11.477Z,100637.63
2018-06-15T23:23:39.727Z,100635.24
2018-06-15T23:26:08.440Z,100635.69
2018-06-15T23:28:37.444Z,100632.38
2018-06-15T23:31:06.711Z,100636.61
2018-06-15T23:33:42.150Z,100639.09
2018-06-15T23:36:14.912Z,100633.78
2018-06-15T23:38:44.572Z,100630.35
2018-06-15T23:41:14.728Z,100639.83
2018-06-15T23:43:44.654Z,100644.27
2018-06-15T23:46:13.600Z,100646.20
2018-06-15T23:48:41.985Z,100640.04
2018-06-15T23:51:10.302Z,100639.95
2018-06-15T23:53:38.690Z,100642.37
2018-06-15T23:56:07.130Z,100640.94
2018-06-15T23:58:35.531Z,100641.16
